AAL014 KMCO-KBNA
Flight info
| Callsign | AAL014 |
|---|---|
| Flight time | 1h 33m |
| Altitude | 30000 |
| Route | JAMIZ THRSR SWFFT |
| Aircraft | B38M/M-V/N |
Departure
| Time | 2026-04-23 02:28 |
|---|---|
| Airport | Orlando International Airport (KMCO) |
Arrival
| Time | 2026-04-23 04:01 |
|---|---|
| Airport | Nashville International Airport (KBNA) |
| Time | Latitude | Longitude | Altitude | Speed | Heading |
|---|---|---|---|---|---|
| 2026-04-23 01:32 | 28.42629 | -81.31275 | 102 ft | 0 kts | 354° |
| 2026-04-23 02:09 | 28.42624 | -81.31275 | 103 ft | 3 kts | 354° |
| 2026-04-23 02:09 | 28.42606 | -81.31273 | 101 ft | 3 kts | 354° |
| 2026-04-23 02:09 | 28.42588 | -81.31271 | 102 ft | 3 kts | 354° |
| 2026-04-23 02:09 | 28.42569 | -81.31268 | 101 ft | 3 kts | 325° |
| 2026-04-23 02:10 | 28.42559 | -81.31252 | 100 ft | 2 kts | 262° |
| 2026-04-23 02:10 | 28.42560 | -81.31249 | 100 ft | 0 kts | 262° |
| 2026-04-23 02:15 | 28.42556 | -81.31277 | 102 ft | 5 kts | 260° |
| 2026-04-23 02:15 | 28.42549 | -81.31320 | 102 ft | 6 kts | 258° |
| 2026-04-23 02:15 | 28.42539 | -81.31371 | 102 ft | 7 kts | 257° |
| 2026-04-23 02:16 | 28.42525 | -81.31438 | 103 ft | 10 kts | 257° |
| 2026-04-23 02:16 | 28.42505 | -81.31531 | 103 ft | 13 kts | 256° |
| 2026-04-23 02:16 | 28.42463 | -81.31617 | 103 ft | 12 kts | 220° |
| 2026-04-23 02:16 | 28.42402 | -81.31664 | 106 ft | 10 kts | 214° |
| 2026-04-23 02:17 | 28.42355 | -81.31726 | 105 ft | 11 kts | 255° |
| 2026-04-23 02:17 | 28.42376 | -81.31813 | 108 ft | 13 kts | 321° |
| 2026-04-23 02:17 | 28.42476 | -81.31830 | 107 ft | 16 kts | 359° |
| 2026-04-23 02:17 | 28.42580 | -81.31831 | 108 ft | 14 kts | 359° |
| 2026-04-23 02:18 | 28.42682 | -81.31832 | 108 ft | 15 kts | 359° |
| 2026-04-23 02:18 | 28.42797 | -81.31833 | 105 ft | 18 kts | 0° |
| 2026-04-23 02:18 | 28.42928 | -81.31834 | 103 ft | 19 kts | 359° |
| 2026-04-23 02:18 | 28.43055 | -81.31836 | 104 ft | 18 kts | 359° |
| 2026-04-23 02:19 | 28.43177 | -81.31838 | 103 ft | 18 kts | 359° |
| 2026-04-23 02:19 | 28.43305 | -81.31838 | 102 ft | 19 kts | 0° |
| 2026-04-23 02:19 | 28.43437 | -81.31841 | 104 ft | 18 kts | 359° |
| 2026-04-23 02:19 | 28.43560 | -81.31843 | 105 ft | 18 kts | 359° |
| 2026-04-23 02:20 | 28.43684 | -81.31843 | 106 ft | 18 kts | 360° |
| 2026-04-23 02:20 | 28.43812 | -81.31844 | 107 ft | 18 kts | 359° |
| 2026-04-23 02:20 | 28.43932 | -81.31856 | 110 ft | 17 kts | 346° |
| 2026-04-23 02:20 | 28.44043 | -81.31888 | 111 ft | 17 kts | 348° |
| 2026-04-23 02:21 | 28.44171 | -81.31899 | 108 ft | 20 kts | 0° |
| 2026-04-23 02:21 | 28.44310 | -81.31901 | 108 ft | 19 kts | 359° |
| 2026-04-23 02:21 | 28.44442 | -81.31902 | 107 ft | 20 kts | 360° |
| 2026-04-23 02:21 | 28.44587 | -81.31903 | 103 ft | 22 kts | 358° |
| 2026-04-23 02:22 | 28.44734 | -81.31906 | 103 ft | 19 kts | 359° |
| 2026-04-23 02:22 | 28.44821 | -81.31957 | 103 ft | 12 kts | 289° |
| 2026-04-23 02:22 | 28.44825 | -81.32041 | 102 ft | 9 kts | 268° |
| 2026-04-23 02:22 | 28.44823 | -81.32107 | 101 ft | 7 kts | 268° |
| 2026-04-23 02:23 | 28.44822 | -81.32118 | 101 ft | 0 kts | 268° |
| 2026-04-23 02:26 | 28.44822 | -81.32119 | 101 ft | 2 kts | 268° |
| 2026-04-23 02:26 | 28.44809 | -81.32200 | 102 ft | 12 kts | 241° |
| 2026-04-23 02:27 | 28.44759 | -81.32228 | 103 ft | 6 kts | 180° |
| 2026-04-23 02:27 | 28.44736 | -81.32228 | 103 ft | 3 kts | 179° |
| 2026-04-23 02:27 | 28.44646 | -81.32225 | 103 ft | 25 kts | 178° |
| 2026-04-23 02:27 | 28.44260 | -81.32217 | 110 ft | 93 kts | 179° |
| 2026-04-23 02:28 | 28.43366 | -81.32210 | 104 ft | 161 kts | 178° |
| 2026-04-23 02:28 | 28.42140 | -81.32195 | 363 ft | 185 kts | 177° |
| 2026-04-23 02:28 | 28.40864 | -81.32188 | 1101 ft | 179 kts | 178° |
| 2026-04-23 02:28 | 28.39643 | -81.32348 | 1866 ft | 175 kts | 186° |
| 2026-04-23 02:29 | 28.38481 | -81.32744 | 2536 ft | 177 kts | 197° |
| 2026-04-23 02:29 | 28.37397 | -81.33406 | 3213 ft | 177 kts | 209° |
| 2026-04-23 02:29 | 28.36463 | -81.34316 | 3850 ft | 179 kts | 224° |
| 2026-04-23 02:29 | 28.35726 | -81.35495 | 4361 ft | 186 kts | 240° |
| 2026-04-23 02:30 | 28.35260 | -81.36842 | 5045 ft | 180 kts | 255° |
| 2026-04-23 02:30 | 28.35050 | -81.38224 | 5689 ft | 176 kts | 265° |
| 2026-04-23 02:30 | 28.34974 | -81.39650 | 6125 ft | 186 kts | 268° |
| 2026-04-23 02:30 | 28.34917 | -81.41134 | 6707 ft | 187 kts | 268° |
| 2026-04-23 02:31 | 28.34871 | -81.42572 | 7354 ft | 182 kts | 268° |
| 2026-04-23 02:31 | 28.34837 | -81.44011 | 7913 ft | 184 kts | 270° |
| 2026-04-23 02:31 | 28.34927 | -81.45477 | 8397 ft | 189 kts | 277° |
| 2026-04-23 02:31 | 28.35096 | -81.46973 | 8918 ft | 192 kts | 277° |
| 2026-04-23 02:32 | 28.35273 | -81.48411 | 9202 ft | 179 kts | 278° |
| 2026-04-23 02:32 | 28.35467 | -81.49840 | 9477 ft | 189 kts | 279° |
| 2026-04-23 02:32 | 28.35691 | -81.51361 | 9753 ft | 201 kts | 279° |
| 2026-04-23 02:32 | 28.35945 | -81.52966 | 10049 ft | 212 kts | 280° |
| 2026-04-23 02:33 | 28.36230 | -81.54644 | 10329 ft | 220 kts | 281° |
| 2026-04-23 02:33 | 28.36541 | -81.56372 | 10570 ft | 227 kts | 282° |
| 2026-04-23 02:33 | 28.36878 | -81.58143 | 10851 ft | 232 kts | 282° |
| 2026-04-23 02:33 | 28.37235 | -81.59925 | 11135 ft | 236 kts | 283° |
| 2026-04-23 02:34 | 28.37620 | -81.61751 | 11416 ft | 239 kts | 283° |
| 2026-04-23 02:34 | 28.38026 | -81.63595 | 11696 ft | 242 kts | 284° |
| 2026-04-23 02:34 | 28.38455 | -81.65454 | 11978 ft | 244 kts | 285° |
| 2026-04-23 02:34 | 28.38904 | -81.67324 | 12249 ft | 246 kts | 286° |
| 2026-04-23 02:35 | 28.39371 | -81.69190 | 12531 ft | 246 kts | 287° |
| 2026-04-23 02:35 | 28.39861 | -81.71073 | 12782 ft | 256 kts | 287° |
| 2026-04-23 02:35 | 28.40410 | -81.73103 | 13041 ft | 281 kts | 288° |
| 2026-04-23 02:35 | 28.41026 | -81.75304 | 13330 ft | 304 kts | 288° |
| 2026-04-23 02:36 | 28.41706 | -81.77661 | 13647 ft | 325 kts | 289° |
| 2026-04-23 02:36 | 28.42450 | -81.80175 | 13968 ft | 344 kts | 288° |
| 2026-04-23 02:36 | 28.43020 | -81.82889 | 14254 ft | 364 kts | 278° |
| 2026-04-23 02:36 | 28.43105 | -81.85839 | 14559 ft | 382 kts | 268° |
| 2026-04-23 02:37 | 28.42848 | -81.88903 | 14857 ft | 398 kts | 264° |
| 2026-04-23 02:37 | 28.42546 | -81.92040 | 15146 ft | 401 kts | 268° |
| 2026-04-23 02:37 | 28.42571 | -81.95218 | 15426 ft | 402 kts | 273° |
| 2026-04-23 02:37 | 28.42703 | -81.98354 | 15702 ft | 403 kts | 273° |
| 2026-04-23 02:38 | 28.42781 | -82.01549 | 15982 ft | 405 kts | 271° |
| 2026-04-23 02:38 | 28.42797 | -82.04759 | 16262 ft | 406 kts | 271° |
| 2026-04-23 02:38 | 28.42829 | -82.07977 | 16539 ft | 408 kts | 272° |
| 2026-04-23 02:38 | 28.42895 | -82.11202 | 16818 ft | 409 kts | 272° |
| 2026-04-23 02:39 | 28.42958 | -82.14442 | 17100 ft | 410 kts | 271° |
| 2026-04-23 02:39 | 28.43003 | -82.17692 | 17382 ft | 411 kts | 271° |
| 2026-04-23 02:39 | 28.43044 | -82.20906 | 17663 ft | 413 kts | 271° |
| 2026-04-23 02:39 | 28.43093 | -82.24168 | 17942 ft | 414 kts | 271° |
| 2026-04-23 02:40 | 28.43145 | -82.27450 | 18235 ft | 415 kts | 271° |
| 2026-04-23 02:40 | 28.43193 | -82.30734 | 18521 ft | 416 kts | 271° |
| 2026-04-23 02:40 | 28.43237 | -82.34045 | 18776 ft | 417 kts | 271° |
| 2026-04-23 02:40 | 28.43318 | -82.37351 | 19032 ft | 418 kts | 275° |
| 2026-04-23 02:41 | 28.43839 | -82.40549 | 19279 ft | 419 kts | 285° |
| 2026-04-23 02:41 | 28.44896 | -82.43643 | 19535 ft | 420 kts | 296° |
| 2026-04-23 02:41 | 28.46455 | -82.46468 | 19814 ft | 423 kts | 306° |
| 2026-04-23 02:41 | 28.48462 | -82.48911 | 20086 ft | 426 kts | 316° |
| 2026-04-23 02:42 | 28.50876 | -82.50900 | 20336 ft | 431 kts | 327° |
| 2026-04-23 02:42 | 28.53607 | -82.52370 | 20608 ft | 435 kts | 334° |
| 2026-04-23 02:42 | 28.56417 | -82.53677 | 20882 ft | 437 kts | 335° |
| 2026-04-23 02:42 | 28.59248 | -82.54980 | 21159 ft | 439 kts | 334° |
| 2026-04-23 02:43 | 28.62085 | -82.56297 | 21433 ft | 441 kts | 334° |
| 2026-04-23 02:43 | 28.64928 | -82.57626 | 21726 ft | 442 kts | 334° |
| 2026-04-23 02:43 | 28.67742 | -82.58939 | 21993 ft | 444 kts | 334° |
| 2026-04-23 02:43 | 28.70613 | -82.60274 | 22272 ft | 446 kts | 334° |
| 2026-04-23 02:44 | 28.73488 | -82.61612 | 22560 ft | 447 kts | 334° |
| 2026-04-23 02:44 | 28.76378 | -82.62962 | 22866 ft | 449 kts | 334° |
| 2026-04-23 02:44 | 28.79275 | -82.64315 | 23161 ft | 451 kts | 334° |
| 2026-04-23 02:44 | 28.82180 | -82.65672 | 23457 ft | 453 kts | 334° |
| 2026-04-23 02:45 | 28.85105 | -82.67037 | 23775 ft | 454 kts | 334° |
| 2026-04-23 02:45 | 28.88033 | -82.68406 | 24026 ft | 456 kts | 334° |
| 2026-04-23 02:45 | 28.90935 | -82.69764 | 24272 ft | 456 kts | 334° |
| 2026-04-23 02:45 | 28.93885 | -82.71146 | 24518 ft | 461 kts | 334° |
| 2026-04-23 02:46 | 28.96869 | -82.72545 | 24764 ft | 463 kts | 334° |
| 2026-04-23 02:46 | 28.99855 | -82.73943 | 25031 ft | 464 kts | 334° |
| 2026-04-23 02:46 | 29.02840 | -82.75342 | 25288 ft | 463 kts | 334° |
| 2026-04-23 02:46 | 29.05812 | -82.76737 | 25557 ft | 461 kts | 334° |
| 2026-04-23 02:47 | 29.08790 | -82.78137 | 25794 ft | 462 kts | 334° |
| 2026-04-23 02:47 | 29.11760 | -82.79533 | 26052 ft | 461 kts | 334° |
| 2026-04-23 02:47 | 29.14728 | -82.80927 | 26314 ft | 459 kts | 334° |
| 2026-04-23 02:47 | 29.17682 | -82.82317 | 26576 ft | 459 kts | 334° |
| 2026-04-23 02:48 | 29.20635 | -82.83708 | 26846 ft | 458 kts | 334° |
| 2026-04-23 02:48 | 29.23536 | -82.85075 | 27108 ft | 456 kts | 334° |
| 2026-04-23 02:48 | 29.26474 | -82.86460 | 27380 ft | 455 kts | 334° |
| 2026-04-23 02:48 | 29.29438 | -82.87858 | 27655 ft | 455 kts | 334° |
| 2026-04-23 02:49 | 29.32320 | -82.89218 | 27934 ft | 453 kts | 333° |
| 2026-04-23 02:49 | 29.35234 | -82.90594 | 28224 ft | 452 kts | 333° |
| 2026-04-23 02:49 | 29.38147 | -82.91972 | 28517 ft | 454 kts | 334° |
| 2026-04-23 02:49 | 29.41064 | -82.93350 | 28805 ft | 452 kts | 334° |
| 2026-04-23 02:50 | 29.43973 | -82.94726 | 29103 ft | 452 kts | 334° |
| 2026-04-23 02:50 | 29.46879 | -82.96102 | 29387 ft | 451 kts | 334° |
| 2026-04-23 02:50 | 29.49778 | -82.97476 | 29679 ft | 450 kts | 334° |
| 2026-04-23 02:50 | 29.52668 | -82.98846 | 29979 ft | 449 kts | 334° |
| 2026-04-23 02:51 | 29.55555 | -83.00215 | 30202 ft | 449 kts | 334° |
| 2026-04-23 02:51 | 29.61290 | -83.02938 | 30192 ft | 443 kts | 334° |
| 2026-04-23 02:52 | 29.66964 | -83.05637 | 30209 ft | 447 kts | 335° |
| 2026-04-23 02:52 | 29.72703 | -83.08366 | 30204 ft | 446 kts | 335° |
| 2026-04-23 02:53 | 29.78433 | -83.11098 | 30205 ft | 446 kts | 335° |
| 2026-04-23 02:53 | 29.84166 | -83.13833 | 30201 ft | 446 kts | 335° |
| 2026-04-23 02:54 | 29.89907 | -83.16576 | 30193 ft | 446 kts | 335° |
| 2026-04-23 02:54 | 29.95651 | -83.19323 | 30199 ft | 447 kts | 335° |
| 2026-04-23 02:55 | 30.01411 | -83.22081 | 30199 ft | 447 kts | 335° |
| 2026-04-23 02:55 | 30.07156 | -83.24837 | 30200 ft | 447 kts | 335° |
| 2026-04-23 02:56 | 30.12869 | -83.27579 | 30206 ft | 447 kts | 335° |
| 2026-04-23 02:56 | 30.18616 | -83.30342 | 30206 ft | 447 kts | 335° |
| 2026-04-23 02:57 | 30.24435 | -83.32909 | 30205 ft | 450 kts | 342° |
| 2026-04-23 02:57 | 30.30499 | -83.34803 | 30207 ft | 451 kts | 342° |
| 2026-04-23 02:58 | 30.36569 | -83.36725 | 30202 ft | 451 kts | 342° |
| 2026-04-23 02:58 | 30.42631 | -83.38636 | 30203 ft | 451 kts | 342° |
| 2026-04-23 02:59 | 30.48689 | -83.40551 | 30202 ft | 451 kts | 342° |
| 2026-04-23 02:59 | 30.54747 | -83.42469 | 30202 ft | 451 kts | 342° |
| 2026-04-23 03:00 | 30.60766 | -83.44377 | 30204 ft | 451 kts | 342° |
| 2026-04-23 03:00 | 30.66817 | -83.46297 | 30202 ft | 451 kts | 342° |
| 2026-04-23 03:01 | 30.72870 | -83.48220 | 30202 ft | 451 kts | 342° |
| 2026-04-23 03:01 | 30.78925 | -83.50147 | 30205 ft | 451 kts | 342° |
| 2026-04-23 03:02 | 30.85018 | -83.52088 | 30202 ft | 454 kts | 344° |
| 2026-04-23 03:02 | 30.91121 | -83.54035 | 30191 ft | 455 kts | 345° |
| 2026-04-23 03:03 | 30.97233 | -83.55987 | 30191 ft | 455 kts | 345° |
| 2026-04-23 03:03 | 31.03312 | -83.57932 | 30189 ft | 456 kts | 345° |
| 2026-04-23 03:04 | 31.09463 | -83.59902 | 30200 ft | 464 kts | 345° |
| 2026-04-23 03:04 | 31.12612 | -83.60911 | 30205 ft | 475 kts | 345° |
| 2026-04-23 03:04 | 31.15839 | -83.61946 | 30208 ft | 485 kts | 345° |
| 2026-04-23 03:05 | 31.22417 | -83.64059 | 30203 ft | 491 kts | 345° |
| 2026-04-23 03:05 | 31.29005 | -83.66178 | 30205 ft | 491 kts | 345° |
| 2026-04-23 03:06 | 31.35588 | -83.68299 | 30206 ft | 491 kts | 345° |
| 2026-04-23 03:06 | 31.42160 | -83.70419 | 30203 ft | 490 kts | 345° |
| 2026-04-23 03:07 | 31.48692 | -83.72529 | 30201 ft | 490 kts | 345° |
| 2026-04-23 03:07 | 31.55266 | -83.74656 | 30195 ft | 490 kts | 345° |
| 2026-04-23 03:08 | 31.61842 | -83.76787 | 30196 ft | 490 kts | 345° |
| 2026-04-23 03:08 | 31.68414 | -83.78919 | 30189 ft | 489 kts | 345° |
| 2026-04-23 03:09 | 31.74969 | -83.81049 | 30194 ft | 489 kts | 345° |
| 2026-04-23 03:09 | 31.81536 | -83.83186 | 30199 ft | 489 kts | 345° |
| 2026-04-23 03:10 | 31.88060 | -83.85312 | 30203 ft | 489 kts | 345° |
| 2026-04-23 03:10 | 31.94620 | -83.87453 | 30206 ft | 489 kts | 345° |
| 2026-04-23 03:11 | 32.00076 | -83.89236 | 30209 ft | 489 kts | 345° |
| 2026-04-23 03:11 | 32.06646 | -83.91387 | 30190 ft | 489 kts | 345° |
| 2026-04-23 03:12 | 32.13211 | -83.93538 | 30188 ft | 489 kts | 345° |
| 2026-04-23 03:12 | 32.19764 | -83.95689 | 30162 ft | 489 kts | 345° |
| 2026-04-23 03:13 | 32.26331 | -83.97848 | 30160 ft | 490 kts | 345° |
| 2026-04-23 03:13 | 32.32902 | -84.00012 | 30162 ft | 490 kts | 345° |
| 2026-04-23 03:14 | 32.39436 | -84.02166 | 30173 ft | 490 kts | 345° |
| 2026-04-23 03:14 | 32.46006 | -84.04336 | 30174 ft | 490 kts | 345° |
| 2026-04-23 03:15 | 32.52586 | -84.06512 | 30172 ft | 491 kts | 345° |
| 2026-04-23 03:15 | 32.59158 | -84.08689 | 30171 ft | 491 kts | 345° |
| 2026-04-23 03:16 | 32.65738 | -84.10872 | 30162 ft | 490 kts | 345° |
| 2026-04-23 03:16 | 32.75595 | -84.14148 | 30187 ft | 491 kts | 345° |
| 2026-04-23 03:17 | 32.82190 | -84.16344 | 30193 ft | 492 kts | 345° |
| 2026-04-23 03:17 | 32.88783 | -84.18543 | 30202 ft | 492 kts | 345° |
| 2026-04-23 03:18 | 32.95334 | -84.20731 | 30202 ft | 492 kts | 345° |
| 2026-04-23 03:18 | 33.01929 | -84.22938 | 30202 ft | 492 kts | 345° |
| 2026-04-23 03:19 | 33.08542 | -84.25154 | 30178 ft | 493 kts | 345° |
| 2026-04-23 03:19 | 33.15143 | -84.27369 | 30192 ft | 493 kts | 345° |
| 2026-04-23 03:20 | 33.21754 | -84.29591 | 30199 ft | 492 kts | 345° |
| 2026-04-23 03:20 | 33.28306 | -84.31797 | 30213 ft | 492 kts | 345° |
| 2026-04-23 03:21 | 33.34880 | -84.34014 | 30217 ft | 492 kts | 345° |
| 2026-04-23 03:21 | 33.41463 | -84.36237 | 30217 ft | 492 kts | 345° |
| 2026-04-23 03:22 | 33.48058 | -84.38467 | 30174 ft | 492 kts | 345° |
| 2026-04-23 03:22 | 33.54396 | -84.40614 | 30179 ft | 492 kts | 345° |
| 2026-04-23 03:23 | 33.60926 | -84.42844 | 30183 ft | 492 kts | 342° |
| 2026-04-23 03:23 | 33.67015 | -84.46545 | 30190 ft | 492 kts | 329° |
| 2026-04-23 03:24 | 33.72828 | -84.50919 | 30188 ft | 493 kts | 328° |
| 2026-04-23 03:24 | 33.75748 | -84.53102 | 29999 ft | 494 kts | 329° |
| 2026-04-23 03:24 | 33.78635 | -84.55255 | 29702 ft | 480 kts | 329° |
| 2026-04-23 03:25 | 33.81329 | -84.57275 | 29417 ft | 463 kts | 328° |
| 2026-04-23 03:25 | 33.84020 | -84.59300 | 29134 ft | 448 kts | 328° |
| 2026-04-23 03:25 | 33.86626 | -84.61259 | 28818 ft | 434 kts | 329° |
| 2026-04-23 03:25 | 33.89154 | -84.63155 | 28506 ft | 422 kts | 329° |
| 2026-04-23 03:26 | 33.91610 | -84.65001 | 28252 ft | 410 kts | 329° |
| 2026-04-23 03:26 | 33.94007 | -84.66806 | 27970 ft | 400 kts | 329° |
| 2026-04-23 03:26 | 33.96339 | -84.68563 | 27688 ft | 390 kts | 329° |
| 2026-04-23 03:26 | 33.98590 | -84.70258 | 27413 ft | 381 kts | 329° |
| 2026-04-23 03:27 | 34.00813 | -84.71934 | 27131 ft | 373 kts | 329° |
| 2026-04-23 03:27 | 34.02999 | -84.73584 | 26858 ft | 366 kts | 329° |
| 2026-04-23 03:27 | 34.05140 | -84.75200 | 26578 ft | 360 kts | 329° |
| 2026-04-23 03:27 | 34.07263 | -84.76803 | 26323 ft | 360 kts | 329° |
| 2026-04-23 03:28 | 34.09387 | -84.78408 | 26076 ft | 360 kts | 329° |
| 2026-04-23 03:28 | 34.11510 | -84.80014 | 25833 ft | 359 kts | 328° |
| 2026-04-23 03:28 | 34.13628 | -84.81617 | 25597 ft | 358 kts | 328° |
| 2026-04-23 03:28 | 34.15736 | -84.83213 | 25352 ft | 357 kts | 328° |
| 2026-04-23 03:29 | 34.17836 | -84.84804 | 25069 ft | 357 kts | 328° |
| 2026-04-23 03:29 | 34.19946 | -84.86403 | 24642 ft | 357 kts | 329° |
| 2026-04-23 03:29 | 34.22019 | -84.87976 | 24241 ft | 355 kts | 329° |
| 2026-04-23 03:29 | 34.24133 | -84.89580 | 23820 ft | 354 kts | 329° |
| 2026-04-23 03:30 | 34.26215 | -84.91162 | 23356 ft | 353 kts | 329° |
| 2026-04-23 03:30 | 34.28265 | -84.92719 | 22880 ft | 351 kts | 328° |
| 2026-04-23 03:30 | 34.30329 | -84.94288 | 22397 ft | 349 kts | 328° |
| 2026-04-23 03:30 | 34.32383 | -84.95851 | 21937 ft | 348 kts | 328° |
| 2026-04-23 03:31 | 34.34435 | -84.97413 | 21478 ft | 346 kts | 328° |
| 2026-04-23 03:31 | 34.36472 | -84.98965 | 21038 ft | 345 kts | 328° |
| 2026-04-23 03:31 | 34.38501 | -85.00511 | 20598 ft | 343 kts | 328° |
| 2026-04-23 03:31 | 34.40523 | -85.02053 | 20164 ft | 342 kts | 328° |
| 2026-04-23 03:32 | 34.42531 | -85.03585 | 19737 ft | 341 kts | 328° |
| 2026-04-23 03:32 | 34.44510 | -85.05095 | 19314 ft | 339 kts | 328° |
| 2026-04-23 03:32 | 34.46506 | -85.06620 | 18906 ft | 338 kts | 327° |
| 2026-04-23 03:32 | 34.48494 | -85.08140 | 18500 ft | 336 kts | 327° |
| 2026-04-23 03:33 | 34.50470 | -85.09651 | 18024 ft | 335 kts | 327° |
| 2026-04-23 03:33 | 34.52435 | -85.11155 | 17552 ft | 334 kts | 328° |
| 2026-04-23 03:33 | 34.54397 | -85.12657 | 17083 ft | 332 kts | 328° |
| 2026-04-23 03:33 | 34.56346 | -85.14150 | 16629 ft | 331 kts | 328° |
| 2026-04-23 03:34 | 34.58293 | -85.15642 | 16179 ft | 330 kts | 328° |
| 2026-04-23 03:34 | 34.60233 | -85.17131 | 15730 ft | 329 kts | 328° |
| 2026-04-23 03:34 | 34.62166 | -85.18613 | 15295 ft | 328 kts | 329° |
| 2026-04-23 03:34 | 34.64091 | -85.20091 | 14863 ft | 327 kts | 329° |
| 2026-04-23 03:35 | 34.66010 | -85.21566 | 14443 ft | 326 kts | 329° |
| 2026-04-23 03:35 | 34.67925 | -85.23038 | 14020 ft | 325 kts | 329° |
| 2026-04-23 03:35 | 34.69836 | -85.24507 | 13556 ft | 324 kts | 329° |
| 2026-04-23 03:35 | 34.71738 | -85.25970 | 13088 ft | 323 kts | 329° |
| 2026-04-23 03:36 | 34.73613 | -85.27413 | 12625 ft | 322 kts | 328° |
| 2026-04-23 03:36 | 34.75523 | -85.28885 | 12176 ft | 320 kts | 328° |
| 2026-04-23 03:36 | 34.77404 | -85.30335 | 11734 ft | 319 kts | 328° |
| 2026-04-23 03:36 | 34.79252 | -85.31759 | 11286 ft | 318 kts | 328° |
| 2026-04-23 03:37 | 34.81115 | -85.33196 | 10850 ft | 316 kts | 327° |
| 2026-04-23 03:37 | 34.82971 | -85.34629 | 10420 ft | 315 kts | 327° |
| 2026-04-23 03:37 | 34.84812 | -85.36051 | 9995 ft | 313 kts | 327° |
| 2026-04-23 03:37 | 34.86647 | -85.37470 | 9513 ft | 312 kts | 326° |
| 2026-04-23 03:38 | 34.88474 | -85.38883 | 9062 ft | 310 kts | 327° |
| 2026-04-23 03:38 | 34.90293 | -85.40290 | 8604 ft | 308 kts | 327° |
| 2026-04-23 03:38 | 34.92101 | -85.41690 | 8161 ft | 307 kts | 326° |
| 2026-04-23 03:38 | 34.93897 | -85.43080 | 7709 ft | 305 kts | 326° |
| 2026-04-23 03:39 | 34.95684 | -85.44465 | 7285 ft | 303 kts | 326° |
| 2026-04-23 03:39 | 34.97437 | -85.45824 | 7141 ft | 291 kts | 326° |
| 2026-04-23 03:39 | 34.99104 | -85.47116 | 7130 ft | 279 kts | 326° |
| 2026-04-23 03:39 | 35.00747 | -85.48392 | 7130 ft | 279 kts | 326° |
| 2026-04-23 03:40 | 35.02384 | -85.49664 | 7133 ft | 279 kts | 326° |
| 2026-04-23 03:40 | 35.04001 | -85.50920 | 7132 ft | 279 kts | 326° |
| 2026-04-23 03:40 | 35.05642 | -85.52194 | 7130 ft | 279 kts | 326° |
| 2026-04-23 03:40 | 35.07281 | -85.53469 | 7131 ft | 279 kts | 326° |
| 2026-04-23 03:41 | 35.08916 | -85.54741 | 7134 ft | 279 kts | 326° |
| 2026-04-23 03:41 | 35.10556 | -85.56017 | 7132 ft | 279 kts | 326° |
| 2026-04-23 03:41 | 35.12190 | -85.57290 | 7134 ft | 279 kts | 326° |
| 2026-04-23 03:41 | 35.13828 | -85.58565 | 7132 ft | 279 kts | 326° |
| 2026-04-23 03:42 | 35.15464 | -85.59841 | 7128 ft | 279 kts | 326° |
| 2026-04-23 03:42 | 35.17098 | -85.61115 | 7143 ft | 279 kts | 326° |
| 2026-04-23 03:42 | 35.18744 | -85.62399 | 7141 ft | 280 kts | 325° |
| 2026-04-23 03:42 | 35.20388 | -85.63682 | 7142 ft | 280 kts | 325° |
| 2026-04-23 03:43 | 35.22025 | -85.64961 | 7144 ft | 280 kts | 325° |
| 2026-04-23 03:43 | 35.23668 | -85.66245 | 7143 ft | 280 kts | 325° |
| 2026-04-23 03:43 | 35.25309 | -85.67527 | 7148 ft | 280 kts | 325° |
| 2026-04-23 03:43 | 35.26930 | -85.68795 | 7144 ft | 280 kts | 325° |
| 2026-04-23 03:44 | 35.28573 | -85.70080 | 7152 ft | 280 kts | 325° |
| 2026-04-23 03:44 | 35.30212 | -85.71363 | 7149 ft | 280 kts | 325° |
| 2026-04-23 03:44 | 35.31853 | -85.72649 | 7149 ft | 280 kts | 325° |
| 2026-04-23 03:44 | 35.33491 | -85.73932 | 7150 ft | 280 kts | 325° |
| 2026-04-23 03:45 | 35.35134 | -85.75220 | 7149 ft | 280 kts | 325° |
| 2026-04-23 03:45 | 35.36776 | -85.76508 | 7150 ft | 280 kts | 325° |
| 2026-04-23 03:45 | 35.38416 | -85.77795 | 7152 ft | 280 kts | 325° |
| 2026-04-23 03:45 | 35.40057 | -85.79084 | 7149 ft | 280 kts | 325° |
| 2026-04-23 03:46 | 35.41699 | -85.80373 | 7150 ft | 280 kts | 325° |
| 2026-04-23 03:46 | 35.43339 | -85.81662 | 7155 ft | 279 kts | 325° |
| 2026-04-23 03:46 | 35.44951 | -85.82929 | 7153 ft | 278 kts | 325° |
| 2026-04-23 03:46 | 35.46602 | -85.84228 | 7152 ft | 279 kts | 325° |
| 2026-04-23 03:47 | 35.48216 | -85.85499 | 7157 ft | 279 kts | 325° |
| 2026-04-23 03:47 | 35.49847 | -85.86783 | 7156 ft | 278 kts | 325° |
| 2026-04-23 03:47 | 35.51483 | -85.88072 | 7156 ft | 278 kts | 325° |
| 2026-04-23 03:47 | 35.53112 | -85.89356 | 7155 ft | 279 kts | 325° |
| 2026-04-23 03:48 | 35.54745 | -85.90644 | 7152 ft | 279 kts | 325° |
| 2026-04-23 03:48 | 35.56334 | -85.92006 | 7153 ft | 278 kts | 317° |
| 2026-04-23 03:48 | 35.57752 | -85.93608 | 7148 ft | 277 kts | 313° |
| 2026-04-23 03:48 | 35.59103 | -85.95264 | 7064 ft | 277 kts | 312° |
| 2026-04-23 03:49 | 35.60455 | -85.96949 | 7000 ft | 277 kts | 312° |
| 2026-04-23 03:49 | 35.61804 | -85.98635 | 6924 ft | 276 kts | 312° |
| 2026-04-23 03:49 | 35.63148 | -86.00315 | 6872 ft | 275 kts | 312° |
| 2026-04-23 03:49 | 35.64489 | -86.01993 | 6825 ft | 275 kts | 312° |
| 2026-04-23 03:50 | 35.65832 | -86.03669 | 6774 ft | 275 kts | 312° |
| 2026-04-23 03:50 | 35.67171 | -86.05339 | 6726 ft | 275 kts | 312° |
| 2026-04-23 03:50 | 35.68516 | -86.07018 | 6669 ft | 274 kts | 312° |
| 2026-04-23 03:50 | 35.69854 | -86.08687 | 6641 ft | 274 kts | 312° |
| 2026-04-23 03:51 | 35.71184 | -86.10340 | 6591 ft | 274 kts | 312° |
| 2026-04-23 03:51 | 35.72521 | -86.12003 | 6547 ft | 274 kts | 312° |
| 2026-04-23 03:51 | 35.73860 | -86.13669 | 6494 ft | 273 kts | 312° |
| 2026-04-23 03:51 | 35.75197 | -86.15331 | 6444 ft | 273 kts | 312° |
| 2026-04-23 03:52 | 35.76536 | -86.16995 | 6390 ft | 273 kts | 312° |
| 2026-04-23 03:52 | 35.77877 | -86.18660 | 6345 ft | 273 kts | 312° |
| 2026-04-23 03:52 | 35.79222 | -86.20312 | 6291 ft | 273 kts | 312° |
| 2026-04-23 03:52 | 35.80574 | -86.21956 | 6241 ft | 273 kts | 312° |
| 2026-04-23 03:53 | 35.81925 | -86.23596 | 6196 ft | 273 kts | 312° |
| 2026-04-23 03:53 | 35.83262 | -86.25218 | 6142 ft | 273 kts | 312° |
| 2026-04-23 03:53 | 35.84619 | -86.26863 | 6090 ft | 273 kts | 312° |
| 2026-04-23 03:53 | 35.85975 | -86.28504 | 6003 ft | 273 kts | 312° |
| 2026-04-23 03:54 | 35.87332 | -86.30147 | 5961 ft | 273 kts | 313° |
| 2026-04-23 03:54 | 35.88684 | -86.31782 | 5910 ft | 272 kts | 312° |
| 2026-04-23 03:54 | 35.90038 | -86.33420 | 5858 ft | 272 kts | 312° |
| 2026-04-23 03:54 | 35.91392 | -86.35056 | 5801 ft | 273 kts | 313° |
| 2026-04-23 03:55 | 35.92745 | -86.36690 | 5695 ft | 272 kts | 313° |
| 2026-04-23 03:55 | 35.94096 | -86.38322 | 5590 ft | 272 kts | 313° |
| 2026-04-23 03:55 | 35.94993 | -86.39405 | 5532 ft | 272 kts | 313° |
| 2026-04-23 03:55 | 35.96341 | -86.41031 | 5429 ft | 271 kts | 313° |
| 2026-04-23 03:56 | 35.97691 | -86.42660 | 5350 ft | 271 kts | 313° |
| 2026-04-23 03:56 | 35.99037 | -86.44284 | 5259 ft | 271 kts | 313° |
| 2026-04-23 03:56 | 36.00388 | -86.45913 | 5161 ft | 271 kts | 313° |
| 2026-04-23 03:56 | 36.01730 | -86.47533 | 5066 ft | 270 kts | 313° |
| 2026-04-23 03:57 | 36.03073 | -86.49154 | 4964 ft | 270 kts | 313° |
| 2026-04-23 03:57 | 36.04412 | -86.50772 | 4868 ft | 269 kts | 312° |
| 2026-04-23 03:57 | 36.05535 | -86.52298 | 5241 ft | 209 kts | 304° |
| 2026-04-23 03:57 | 36.06224 | -86.53695 | 4880 ft | 174 kts | 290° |
| 2026-04-23 03:58 | 36.06579 | -86.54989 | 4359 ft | 147 kts | 282° |
| 2026-04-23 03:58 | 36.06835 | -86.56164 | 3666 ft | 138 kts | 280° |
| 2026-04-23 03:58 | 36.07060 | -86.57277 | 3039 ft | 131 kts | 278° |
| 2026-04-23 03:58 | 36.07262 | -86.58331 | 2546 ft | 124 kts | 279° |
| 2026-04-23 03:59 | 36.07502 | -86.59332 | 2197 ft | 119 kts | 283° |
| 2026-04-23 03:59 | 36.07840 | -86.60277 | 1854 ft | 124 kts | 290° |
| 2026-04-23 03:59 | 36.08280 | -86.61261 | 1820 ft | 136 kts | 295° |
| 2026-04-23 03:59 | 36.08803 | -86.62253 | 1869 ft | 140 kts | 299° |
| 2026-04-23 04:00 | 36.09390 | -86.63227 | 1858 ft | 142 kts | 302° |
| 2026-04-23 04:00 | 36.10021 | -86.64161 | 1601 ft | 138 kts | 306° |
| 2026-04-23 04:00 | 36.10662 | -86.65028 | 1247 ft | 137 kts | 310° |
| 2026-04-23 04:00 | 36.11318 | -86.65905 | 955 ft | 140 kts | 311° |
| 2026-04-23 04:01 | 36.11997 | -86.66757 | 643 ft | 137 kts | 313° |
| 2026-04-23 04:01 | 36.12569 | -86.67505 | 573 ft | 90 kts | 314° |
| 2026-04-23 04:01 | 36.12846 | -86.67866 | 578 ft | 31 kts | 313° |
| 2026-04-23 04:01 | 36.12966 | -86.68022 | 575 ft | 22 kts | 315° |
| 2026-04-23 04:02 | 36.13029 | -86.68131 | 577 ft | 10 kts | 259° |
| 2026-04-23 04:02 | 36.12989 | -86.68168 | 580 ft | 10 kts | 202° |
| 2026-04-23 04:02 | 36.12923 | -86.68217 | 580 ft | 7 kts | 250° |
| 2026-04-23 04:02 | 36.12941 | -86.68294 | 581 ft | 13 kts | 279° |
| 2026-04-23 04:03 | 36.12881 | -86.68369 | 580 ft | 15 kts | 199° |
| 2026-04-23 04:03 | 36.12773 | -86.68415 | 580 ft | 16 kts | 206° |
| 2026-04-23 04:03 | 36.12740 | -86.68506 | 580 ft | 10 kts | 261° |
| 2026-04-23 04:03 | 36.12745 | -86.68572 | 580 ft | 6 kts | 282° |
| 2026-04-23 04:04 | 36.12752 | -86.68605 | 580 ft | 2 kts | 285° |
| 2026-04-23 04:04 | 36.12754 | -86.68618 | 580 ft | 4 kts | 283° |
| 2026-04-23 04:04 | 36.12756 | -86.68626 | 580 ft | 0 kts | 283° |